Lebrija, Spain
Current Conditions -  °F | °C
As of 11:00 PM on Thursday 27 Nov 2014 (Local Time) from LEJR Reporting Station
Moderate Rain Moderate Rain  
Wind Chill: 57°   Ceiling: 2000
Heat Index: 57°   Visibility: 5mi
Dew Point: 55°   Wind: 8mph
Humidity: 94%   Direction: 180°S
Pressure: 29.29"   Gusts: NA
Location:  36.92°N, 6.08°W
Report Text: LEJR 272200Z 18007KT 8000 RA BKN020 BKN030 14/13 Q0992
Loading
Personal Weather Stations






























Interactive Weather Map New forecast layout! Learn more

10-Day Weather Forecast

Advertisements
Track Severe Weather on mobile